Almeria, Nebraska
Current Conditions -  °F | °C
As of 11:53 AM on Saturday 20 Dec 2014 (Local Time) from KBBW Reporting Station
Clear Clear  
Wind Chill: 35°   Ceiling: Unl
Heat Index: 35°   Visibility: 10mi
Dew Point: 29°   Wind: 0mph
Humidity: 78%   Direction: NA
Pressure: 29.98"   Gusts: NA
Location:  41.914°N, 99.4547°W
Report Text: KBBW 201753Z AUTO 00000KT 10SM CLR 02/M02 A2998 RMK AO2 SLP175 I6000 T00171017 10017 21083 58006
Loading
Personal Weather Stations






























Interactive Weather Map New forecast layout! Learn more

10-Day Weather Forecast

Advertisements
Track Severe Weather on mobile